createdAt,value
2023-03-08T00:07:08.454Z,12.10
2023-03-08T00:12:14.276Z,13.80
2023-03-08T00:22:23.062Z,11.20
2023-03-08T00:27:28.963Z,10.90
2023-03-08T00:32:34.307Z,14.18
2023-03-08T00:37:38.792Z,11.65
2023-03-08T00:42:44.740Z,11.02
2023-03-08T00:52:53.309Z,11.60
2023-03-08T00:57:59.303Z,20.33
2023-03-08T01:03:05.610Z,14.43
2023-03-08T01:08:10.476Z,19.58
2023-03-08T01:13:16.320Z,29.17
2023-03-08T01:18:21.578Z,14.25
2023-03-08T01:23:26.574Z,33.25
2023-03-08T01:28:32.850Z,16.20
2023-03-08T01:33:37.838Z,20.92
2023-03-08T01:38:42.267Z,15.55
2023-03-08T01:43:49.266Z,20.40
2023-03-08T01:48:57.976Z,23.60
2023-03-08T01:54:06.426Z,14.45
2023-03-08T01:59:13.091Z,14.90
2023-03-08T02:04:17.489Z,17.42
2023-03-08T02:09:24.231Z,16.55
2023-03-08T02:14:31.834Z,20.70
2023-03-08T02:19:44.985Z,22.88
2023-03-08T02:24:50.830Z,20.75
2023-03-08T02:29:55.150Z,12.10
2023-03-08T02:35:00.298Z,17.83
2023-03-08T02:40:07.536Z,18.80
2023-03-08T02:45:12.588Z,11.50
2023-03-08T02:50:17.661Z,10.23
2023-03-08T02:55:24.046Z,12.05
2023-03-08T03:00:28.688Z,16.42
2023-03-08T03:05:33.446Z,23.60
2023-03-08T03:10:43.647Z,13.63
2023-03-08T03:15:48.264Z,10.43
2023-03-08T03:20:52.743Z,11.10
2023-03-08T03:25:58.771Z,11.95
2023-03-08T03:31:03.846Z,9.77
2023-03-08T03:36:10.911Z,12.80
2023-03-08T03:41:20.163Z,11.82
2023-03-08T03:46:26.779Z,11.23
2023-03-08T03:51:34.063Z,10.20
2023-03-08T03:56:51.038Z,12.05
2023-03-08T04:01:59.350Z,11.55
2023-03-08T04:07:13.384Z,10.93
2023-03-08T04:12:26.027Z,11.30
2023-03-08T04:17:30.956Z,10.80
2023-03-08T04:22:35.413Z,9.98
2023-03-08T04:27:49.108Z,10.80
2023-03-08T04:32:53.691Z,10.25
2023-03-08T04:38:01.664Z,10.60
2023-03-08T04:43:07.521Z,10.90
2023-03-08T04:48:16.742Z,10.65
2023-03-08T04:53:21.789Z,11.90
2023-03-08T04:58:28.587Z,10.23
2023-03-08T05:03:33.169Z,11.70
2023-03-08T05:08:38.485Z,9.90
2023-03-08T05:13:45.342Z,9.80
2023-03-08T05:18:49.998Z,10.52
2023-03-08T05:23:57.029Z,10.18
2023-03-08T05:29:06.472Z,10.53
2023-03-08T05:34:12.392Z,10.48
2023-03-08T05:39:19.600Z,10.35
2023-03-08T05:44:38.132Z,12.77
2023-03-08T05:49:43.950Z,11.13
2023-03-08T05:54:50.125Z,9.80
2023-03-08T05:59:58.276Z,10.73
2023-03-08T06:05:03.032Z,10.70
2023-03-08T06:10:08.754Z,10.68
2023-03-08T06:15:14.602Z,14.65
2023-03-08T06:20:19.129Z,9.40
2023-03-08T06:25:27.364Z,9.85
2023-03-08T06:30:34.134Z,10.23
2023-03-08T06:35:44.075Z,9.00
2023-03-08T06:40:49.401Z,8.95
2023-03-08T06:45:55.478Z,9.27
2023-03-08T06:50:59.968Z,10.27
2023-03-08T06:56:04.423Z,10.57
2023-03-08T07:01:11.575Z,9.75
2023-03-08T07:06:16.574Z,10.90
2023-03-08T07:11:21.087Z,9.43
2023-03-08T07:16:27.024Z,9.50
2023-03-08T07:26:35.567Z,9.27
2023-03-08T07:31:41.446Z,10.07
2023-03-08T07:41:50.548Z,9.23
2023-03-08T07:46:56.527Z,9.87
2023-03-08T07:57:05.943Z,9.23
2023-03-08T08:02:13.938Z,10.17
2023-03-08T08:07:18.738Z,8.85
2023-03-08T08:12:23.788Z,8.52
2023-03-08T08:17:29.698Z,9.07
2023-03-08T08:27:40.480Z,12.23
2023-03-08T08:32:46.463Z,7.82
2023-03-08T08:37:51.035Z,13.05
2023-03-08T08:42:55.443Z,9.25
2023-03-08T08:48:01.214Z,8.80
2023-03-08T08:53:05.765Z,7.97
2023-03-08T08:58:10.708Z,9.35
2023-03-08T09:03:16.604Z,9.02
2023-03-08T09:08:21.347Z,8.63
2023-03-08T09:13:26.376Z,10.07
2023-03-08T09:18:32.383Z,7.73
2023-03-08T09:28:41.079Z,9.95
2023-03-08T09:33:48.968Z,10.25
2023-03-08T09:38:54.164Z,11.02
2023-03-08T09:44:15.030Z,11.43
2023-03-08T09:49:24.409Z,11.07
2023-03-08T09:54:29.633Z,9.63
2023-03-08T09:59:41.099Z,8.23
2023-03-08T10:05:12.201Z,8.60
2023-03-08T10:10:32.158Z,8.75
2023-03-08T10:15:41.938Z,7.85
2023-03-08T10:20:49.699Z,9.07
2023-03-08T10:25:54.351Z,11.20
2023-03-08T10:31:01.004Z,10.43
2023-03-08T10:36:12.907Z,8.75
2023-03-08T10:41:18.932Z,7.38
2023-03-08T10:51:31.612Z,7.50
2023-03-08T10:56:39.725Z,8.55
2023-03-08T11:01:51.182Z,8.77
2023-03-08T11:06:57.151Z,6.93
2023-03-08T11:17:19.917Z,7.53
2023-03-08T11:22:34.468Z,7.38
2023-03-08T11:27:51.370Z,6.30
2023-03-08T11:33:32.996Z,7.00
2023-03-08T11:38:40.010Z,6.32
2023-03-08T11:43:57.012Z,12.55
2023-03-08T11:49:28.576Z,6.97
2023-03-08T11:54:48.084Z,6.97
2023-03-08T11:59:58.345Z,7.15
2023-03-08T12:05:11.609Z,6.47
2023-03-08T12:10:30.547Z,6.95
2023-03-08T12:15:40.406Z,6.18
2023-03-08T12:20:46.500Z,5.80
2023-03-08T12:26:00.659Z,5.82
2023-03-08T12:31:27.555Z,6.90
2023-03-08T12:36:41.025Z,10.77
2023-03-08T12:41:59.101Z,5.68
2023-03-08T12:47:18.249Z,6.07
2023-03-08T12:52:31.427Z,5.60
2023-03-08T12:57:43.080Z,6.47
2023-03-08T13:02:47.645Z,6.40
2023-03-08T13:08:02.046Z,6.80
2023-03-08T13:13:38.722Z,6.40
2023-03-08T13:18:45.064Z,6.10
2023-03-08T13:23:54.274Z,5.68
2023-03-08T13:29:00.486Z,5.63
2023-03-08T13:34:05.040Z,7.95
2023-03-08T13:39:19.680Z,7.93
2023-03-08T13:44:27.661Z,7.65
2023-03-08T13:49:35.867Z,7.22
2023-03-08T13:54:46.473Z,6.82
2023-03-08T13:59:54.120Z,8.00
2023-03-08T14:04:59.955Z,8.07
2023-03-08T14:10:05.793Z,7.68
2023-03-08T14:15:19.835Z,7.70
2023-03-08T14:20:26.193Z,7.43
2023-03-08T14:25:34.255Z,8.02
2023-03-08T14:30:49.083Z,8.35
2023-03-08T14:35:57.921Z,8.15
2023-03-08T14:41:06.258Z,8.65
2023-03-08T14:46:20.071Z,8.30
2023-03-08T14:51:30.391Z,7.82
2023-03-08T14:56:35.757Z,7.80
2023-03-08T15:01:41.876Z,8.65
2023-03-08T15:11:54.051Z,8.80
2023-03-08T15:17:00.242Z,9.27
2023-03-08T15:22:06.843Z,9.50
2023-03-08T15:27:20.527Z,8.88
2023-03-08T15:32:26.646Z,9.27
2023-03-08T15:37:32.100Z,8.48
2023-03-08T15:42:36.788Z,7.90
2023-03-08T15:47:42.993Z,8.63
2023-03-08T15:52:47.851Z,8.85
2023-03-08T15:57:52.908Z,14.10
2023-03-08T16:02:59.271Z,8.50
2023-03-08T16:08:05.375Z,10.40
2023-03-08T16:18:15.479Z,21.65
2023-03-08T16:28:23.981Z,22.10
2023-03-08T16:33:30.235Z,21.77
2023-03-08T16:38:34.918Z,24.88
2023-03-08T16:45:38.676Z,23.90
2023-03-08T16:49:06.239Z,25.70
2023-03-08T16:59:16.775Z,26.00
2023-03-08T17:04:23.272Z,36.25
2023-03-08T17:09:27.715Z,30.40
2023-03-08T17:14:34.626Z,28.00
2023-03-08T17:19:41.187Z,12.60
2023-03-08T17:24:45.561Z,7.53
2023-03-08T17:29:53.477Z,8.13
2023-03-08T17:34:59.520Z,8.10
2023-03-08T17:40:04.864Z,7.10
2023-03-08T17:45:10.603Z,6.68
2023-03-08T17:50:16.346Z,6.35
2023-03-08T17:55:20.693Z,5.43
2023-03-08T18:00:25.326Z,6.18
2023-03-08T18:05:31.240Z,4.72
2023-03-08T18:10:35.550Z,7.68
2023-03-08T18:15:39.853Z,6.35
2023-03-08T18:20:46.423Z,6.68
2023-03-08T18:25:50.862Z,7.93
2023-03-08T18:30:55.204Z,7.30
2023-03-08T18:36:02.411Z,6.97
2023-03-08T18:46:17.755Z,7.47
2023-03-08T18:51:23.923Z,7.80
2023-03-08T18:56:30.037Z,8.40
2023-03-08T19:01:34.845Z,8.32
2023-03-08T19:06:40.977Z,10.02
2023-03-08T19:11:45.735Z,11.15
2023-03-08T19:16:50.075Z,11.32
2023-03-08T19:21:55.888Z,10.32
2023-03-08T19:32:08.411Z,10.40
2023-03-08T19:37:15.326Z,10.18
2023-03-08T19:42:19.756Z,10.65
2023-03-08T19:47:24.068Z,12.50
2023-03-08T19:52:29.984Z,11.32
2023-03-08T19:57:34.373Z,11.27
2023-03-08T20:02:40.694Z,11.43
2023-03-08T20:07:46.571Z,10.55
2023-03-08T20:12:52.602Z,9.93
2023-03-08T20:17:56.954Z,11.50
2023-03-08T20:23:02.882Z,9.95
2023-03-08T20:28:07.550Z,10.05
2023-03-08T20:33:12.539Z,11.23
2023-03-08T20:38:18.594Z,10.70
2023-03-08T20:48:28.064Z,9.65
2023-03-08T20:53:35.134Z,8.95
2023-03-08T20:58:39.603Z,10.73
2023-03-08T21:03:44.276Z,8.63
2023-03-08T21:08:51.087Z,10.00
2023-03-08T21:13:55.661Z,9.40
2023-03-08T21:19:02.413Z,9.35
2023-03-08T21:24:10.047Z,9.05
2023-03-08T21:29:16.296Z,8.68
2023-03-08T21:34:21.491Z,8.32
2023-03-08T21:39:27.389Z,7.77
2023-03-08T21:44:32.179Z,7.80
2023-03-08T21:49:36.557Z,7.70
2023-03-08T21:54:42.547Z,8.23
2023-03-08T21:59:46.888Z,8.30
2023-03-08T22:04:51.223Z,8.23
2023-03-08T22:09:56.913Z,7.07
2023-03-08T22:15:01.248Z,7.25
2023-03-08T22:20:06.364Z,8.90
2023-03-08T22:25:12.633Z,8.30
2023-03-08T22:30:17.395Z,8.40
2023-03-08T22:35:22.447Z,7.38
2023-03-08T22:40:29.563Z,7.80
2023-03-08T22:45:35.040Z,7.30
2023-03-08T22:50:40.550Z,7.38
2023-03-08T22:55:50.365Z,8.30
2023-03-08T23:00:55.013Z,7.70
2023-03-08T23:05:59.559Z,7.32
2023-03-08T23:11:06.317Z,8.23
2023-03-08T23:16:13.854Z,8.15
2023-03-08T23:21:20.405Z,8.07
2023-03-08T23:26:28.615Z,8.88
2023-03-08T23:31:35.913Z,8.27
2023-03-08T23:36:40.572Z,8.07
2023-03-08T23:41:46.478Z,8.45
2023-03-08T23:51:55.149Z,7.72
2023-03-08T23:57:01.156Z,7.38
